sensor_id;sensor_type;location;lat;lon;timestamp;pressure;altitude;pressure_sealevel;temperature;humidity
5814;BME280;2933;52.302;8.134;2023-07-31T00:00:12;99913.44;;;15.73;100.00
5814;BME280;2933;52.302;8.134;2023-07-31T00:05:15;99913.69;;;15.70;100.00
5814;BME280;2933;52.302;8.134;2023-07-31T00:10:17;99914.25;;;15.73;100.00
5814;BME280;2933;52.302;8.134;2023-07-31T00:15:18;99901.50;;;15.68;100.00
5814;BME280;2933;52.302;8.134;2023-07-31T00:20:21;99894.44;;;15.79;100.00
5814;BME280;2933;52.302;8.134;2023-07-31T00:25:23;99894.31;;;15.71;100.00
5814;BME280;2933;52.302;8.134;2023-07-31T00:30:24;99877.09;;;15.76;100.00
5814;BME280;2933;52.302;8.134;2023-07-31T00:35:28;99871.97;;;15.75;100.00
5814;BME280;2933;52.302;8.134;2023-07-31T00:40:34;99877.00;;;15.68;100.00
5814;BME280;2933;52.302;8.134;2023-07-31T00:45:36;99880.16;;;15.81;100.00
5814;BME280;2933;52.302;8.134;2023-07-31T00:50:39;99869.50;;;15.73;100.00
5814;BME280;2933;52.302;8.134;2023-07-31T00:55:41;99864.06;;;15.75;100.00
5814;BME280;2933;52.302;8.134;2023-07-31T01:00:43;99865.88;;;15.74;100.00
5814;BME280;2933;52.302;8.134;2023-07-31T01:05:52;99864.25;;;15.54;100.00
5814;BME280;2933;52.302;8.134;2023-07-31T01:11:01;99851.50;;;15.59;100.00
5814;BME280;2933;52.302;8.134;2023-07-31T01:16:03;99858.28;;;15.61;100.00
5814;BME280;2933;52.302;8.134;2023-07-31T01:21:21;99849.16;;;15.56;100.00
5814;BME280;2933;52.302;8.134;2023-07-31T01:26:30;99841.25;;;15.56;100.00
5814;BME280;2933;52.302;8.134;2023-07-31T01:31:36;99836.84;;;15.46;100.00
5814;BME280;2933;52.302;8.134;2023-07-31T01:36:38;99820.78;;;15.40;100.00
5814;BME280;2933;52.302;8.134;2023-07-31T01:41:41;99810.56;;;15.27;100.00
5814;BME280;2933;52.302;8.134;2023-07-31T01:46:42;99803.75;;;15.34;100.00
5814;BME280;2933;52.302;8.134;2023-07-31T01:51:44;99817.03;;;15.42;100.00
5814;BME280;2933;52.302;8.134;2023-07-31T01:56:47;99815.53;;;15.30;100.00
5814;BME280;2933;52.302;8.134;2023-07-31T02:01:48;99795.59;;;15.17;100.00
5814;BME280;2933;52.302;8.134;2023-07-31T02:06:50;99804.34;;;15.18;100.00
5814;BME280;2933;52.302;8.134;2023-07-31T02:11:53;99795.59;;;15.27;100.00
5814;BME280;2933;52.302;8.134;2023-07-31T02:16:54;99796.16;;;15.21;100.00
5814;BME280;2933;52.302;8.134;2023-07-31T02:21:56;99792.25;;;15.35;100.00
5814;BME280;2933;52.302;8.134;2023-07-31T02:26:58;99784.72;;;15.50;100.00
5814;BME280;2933;52.302;8.134;2023-07-31T02:32:00;99791.28;;;15.46;100.00
5814;BME280;2933;52.302;8.134;2023-07-31T02:37:01;99792.09;;;15.46;100.00
5814;BME280;2933;52.302;8.134;2023-07-31T02:42:04;99790.72;;;15.32;100.00
5814;BME280;2933;52.302;8.134;2023-07-31T02:47:06;99789.22;;;15.30;100.00
5814;BME280;2933;52.302;8.134;2023-07-31T02:52:07;99788.28;;;15.11;100.00
5814;BME280;2933;52.302;8.134;2023-07-31T02:57:11;99792.28;;;15.15;100.00
5814;BME280;2933;52.302;8.134;2023-07-31T03:02:12;99796.72;;;15.15;100.00
5814;BME280;2933;52.302;8.134;2023-07-31T03:07:14;99793.28;;;15.05;100.00
5814;BME280;2933;52.302;8.134;2023-07-31T03:12:17;99780.78;;;15.07;100.00
5814;BME280;2933;52.302;8.134;2023-07-31T03:17:19;99770.81;;;15.10;100.00
5814;BME280;2933;52.302;8.134;2023-07-31T03:22:21;99769.84;;;15.21;100.00
5814;BME280;2933;52.302;8.134;2023-07-31T03:27:24;99757.38;;;15.23;100.00
5814;BME280;2933;52.302;8.134;2023-07-31T03:32:25;99757.00;;;15.18;100.00
5814;BME280;2933;52.302;8.134;2023-07-31T03:37:27;99751.72;;;15.18;100.00
5814;BME280;2933;52.302;8.134;2023-07-31T03:42:30;99742.97;;;15.27;100.00
5814;BME280;2933;52.302;8.134;2023-07-31T03:47:32;99741.88;;;15.10;100.00
5814;BME280;2933;52.302;8.134;2023-07-31T03:52:33;99740.50;;;15.16;100.00
5814;BME280;2933;52.302;8.134;2023-07-31T03:57:36;99725.13;;;15.21;100.00
5814;BME280;2933;52.302;8.134;2023-07-31T04:02:38;99726.06;;;15.30;100.00
5814;BME280;2933;52.302;8.134;2023-07-31T04:07:39;99737.31;;;15.22;100.00
5814;BME280;2933;52.302;8.134;2023-07-31T04:12:42;99723.97;;;15.33;100.00
5814;BME280;2933;52.302;8.134;2023-07-31T04:17:44;99730.50;;;15.39;100.00
5814;BME280;2933;52.302;8.134;2023-07-31T04:22:45;99718.16;;;15.30;100.00
5814;BME280;2933;52.302;8.134;2023-07-31T04:27:48;99718.41;;;15.37;100.00
5814;BME280;2933;52.302;8.134;2023-07-31T04:32:49;99721.38;;;15.24;100.00
5814;BME280;2933;52.302;8.134;2023-07-31T04:37:51;99720.41;;;15.25;100.00
5814;BME280;2933;52.302;8.134;2023-07-31T04:42:54;99729.66;;;15.29;100.00
5814;BME280;2933;52.302;8.134;2023-07-31T04:47:55;99723.84;;;15.25;100.00
5814;BME280;2933;52.302;8.134;2023-07-31T04:52:57;99735.50;;;15.23;100.00
5814;BME280;2933;52.302;8.134;2023-07-31T04:58:00;99731.09;;;15.23;100.00
5814;BME280;2933;52.302;8.134;2023-07-31T05:03:01;99726.78;;;15.22;100.00
5814;BME280;2933;52.302;8.134;2023-07-31T05:08:03;99733.41;;;15.26;100.00
5814;BME280;2933;52.302;8.134;2023-07-31T05:13:06;99731.09;;;15.23;100.00
5814;BME280;2933;52.302;8.134;2023-07-31T05:18:07;99726.66;;;15.14;100.00
5814;BME280;2933;52.302;8.134;2023-07-31T05:23:09;99729.84;;;14.98;100.00
5814;BME280;2933;52.302;8.134;2023-07-31T05:28:12;99730.97;;;15.05;100.00
5814;BME280;2933;52.302;8.134;2023-07-31T05:33:14;99729.13;;;15.15;100.00
5814;BME280;2933;52.302;8.134;2023-07-31T05:38:15;99719.88;;;15.11;100.00
5814;BME280;2933;52.302;8.134;2023-07-31T05:43:18;99727.50;;;15.05;100.00
5814;BME280;2933;52.302;8.134;2023-07-31T05:48:20;99720.75;;;15.02;100.00
5814;BME280;2933;52.302;8.134;2023-07-31T05:53:21;99728.34;;;15.05;100.00
5814;BME280;2933;52.302;8.134;2023-07-31T05:58:24;99718.63;;;15.15;100.00
5814;BME280;2933;52.302;8.134;2023-07-31T06:03:26;99723.47;;;15.10;100.00
5814;BME280;2933;52.302;8.134;2023-07-31T06:08:27;99716.44;;;15.11;100.00
5814;BME280;2933;52.302;8.134;2023-07-31T06:13:30;99703.09;;;15.22;100.00
5814;BME280;2933;52.302;8.134;2023-07-31T06:18:32;99704.06;;;15.21;100.00
5814;BME280;2933;52.302;8.134;2023-07-31T06:23:33;99711.84;;;15.13;100.00
5814;BME280;2933;52.302;8.134;2023-07-31T06:28:36;99713.66;;;15.12;100.00
5814;BME280;2933;52.302;8.134;2023-07-31T06:33:38;99713.59;;;15.32;100.00
5814;BME280;2933;52.302;8.134;2023-07-31T06:38:39;99715.16;;;15.25;100.00
5814;BME280;2933;52.302;8.134;2023-07-31T06:43:42;99711.75;;;15.42;100.00
5814;BME280;2933;52.302;8.134;2023-07-31T06:48:43;99709.53;;;15.47;100.00
5814;BME280;2933;52.302;8.134;2023-07-31T06:53:45;99725.88;;;15.41;100.00
5814;BME280;2933;52.302;8.134;2023-07-31T06:58:48;99706.06;;;15.47;100.00
5814;BME280;2933;52.302;8.134;2023-07-31T07:03:49;99709.34;;;15.59;100.00
5814;BME280;2933;52.302;8.134;2023-07-31T07:08:51;99706.16;;;15.55;100.00
5814;BME280;2933;52.302;8.134;2023-07-31T07:13:54;99689.78;;;15.61;100.00
5814;BME280;2933;52.302;8.134;2023-07-31T07:18:56;99694.03;;;15.72;100.00
5814;BME280;2933;52.302;8.134;2023-07-31T07:23:57;99705.00;;;15.67;100.00
5814;BME280;2933;52.302;8.134;2023-07-31T07:29:00;99699.81;;;15.58;100.00
5814;BME280;2933;52.302;8.134;2023-07-31T07:34:02;99701.75;;;15.56;100.00
5814;BME280;2933;52.302;8.134;2023-07-31T07:39:04;99698.25;;;15.55;100.00
5814;BME280;2933;52.302;8.134;2023-07-31T07:44:07;99690.38;;;15.55;100.00
5814;BME280;2933;52.302;8.134;2023-07-31T07:49:09;99687.63;;;15.57;100.00
5814;BME280;2933;52.302;8.134;2023-07-31T07:54:10;99682.59;;;15.63;100.00
5814;BME280;2933;52.302;8.134;2023-07-31T07:59:13;99676.19;;;15.66;100.00
5814;BME280;2933;52.302;8.134;2023-07-31T08:04:14;99674.16;;;15.60;100.00
5814;BME280;2933;52.302;8.134;2023-07-31T08:09:16;99665.34;;;15.79;100.00
5814;BME280;2933;52.302;8.134;2023-07-31T08:14:19;99646.41;;;15.93;100.00
5814;BME280;2933;52.302;8.134;2023-07-31T08:19:20;99649.66;;;16.05;100.00
5814;BME280;2933;52.302;8.134;2023-07-31T08:24:22;99640.09;;;16.22;100.00
5814;BME280;2933;52.302;8.134;2023-07-31T08:29:26;99639.94;;;16.06;100.00
5814;BME280;2933;52.302;8.134;2023-07-31T08:34:27;99637.31;;;16.24;100.00
5814;BME280;2933;52.302;8.134;2023-07-31T08:39:29;99625.13;;;16.23;100.00
5814;BME280;2933;52.302;8.134;2023-07-31T08:44:33;99621.03;;;16.28;100.00
5814;BME280;2933;52.302;8.134;2023-07-31T08:49:36;99613.97;;;16.29;100.00
5814;BME280;2933;52.302;8.134;2023-07-31T08:54:40;99621.44;;;16.34;100.00
5814;BME280;2933;52.302;8.134;2023-07-31T08:59:43;99622.41;;;16.33;100.00
5814;BME280;2933;52.302;8.134;2023-07-31T09:04:45;99619.25;;;16.29;100.00
5814;BME280;2933;52.302;8.134;2023-07-31T09:09:47;99619.09;;;16.30;100.00
5814;BME280;2933;52.302;8.134;2023-07-31T09:14:50;99609.06;;;16.16;100.00
5814;BME280;2933;52.302;8.134;2023-07-31T09:19:51;99607.72;;;16.30;100.00
5814;BME280;2933;52.302;8.134;2023-07-31T09:24:53;99603.97;;;16.33;100.00
5814;BME280;2933;52.302;8.134;2023-07-31T09:29:59;99600.56;;;16.40;100.00
5814;BME280;2933;52.302;8.134;2023-07-31T09:35:01;99599.59;;;16.41;100.00
5814;BME280;2933;52.302;8.134;2023-07-31T09:40:25;99592.28;;;16.35;100.00
5814;BME280;2933;52.302;8.134;2023-07-31T09:45:29;99589.41;;;16.46;100.00
5814;BME280;2933;52.302;8.134;2023-07-31T09:50:30;99585.78;;;16.47;100.00
5814;BME280;2933;52.302;8.134;2023-07-31T09:55:32;99584.66;;;16.50;100.00
5814;BME280;2933;52.302;8.134;2023-07-31T10:00:36;99579.16;;;16.43;100.00
5814;BME280;2933;52.302;8.134;2023-07-31T10:05:40;99573.88;;;16.43;100.00
5814;BME280;2933;52.302;8.134;2023-07-31T10:10:44;99574.72;;;16.44;100.00
5814;BME280;2933;52.302;8.134;2023-07-31T10:15:48;99576.75;;;16.50;100.00
5814;BME280;2933;52.302;8.134;2023-07-31T10:20:50;99577.41;;;16.52;100.00
5814;BME280;2933;52.302;8.134;2023-07-31T10:25:53;99577.88;;;16.47;100.00
5814;BME280;2933;52.302;8.134;2023-07-31T10:30:56;99573.38;;;16.66;100.00
5814;BME280;2933;52.302;8.134;2023-07-31T10:36:13;99569.88;;;16.57;100.00
5814;BME280;2933;52.302;8.134;2023-07-31T10:41:15;99573.50;;;16.38;100.00
5814;BME280;2933;52.302;8.134;2023-07-31T10:46:18;99566.22;;;16.32;100.00
5814;BME280;2933;52.302;8.134;2023-07-31T10:51:20;99561.53;;;16.44;100.00
5814;BME280;2933;52.302;8.134;2023-07-31T10:56:25;99564.03;;;16.45;100.00
5814;BME280;2933;52.302;8.134;2023-07-31T11:01:52;99564.53;;;16.49;100.00
5814;BME280;2933;52.302;8.134;2023-07-31T11:06:57;99565.75;;;16.55;100.00
5814;BME280;2933;52.302;8.134;2023-07-31T11:11:59;99563.91;;;16.55;100.00
5814;BME280;2933;52.302;8.134;2023-07-31T11:17:07;99548.19;;;16.45;100.00
5814;BME280;2933;52.302;8.134;2023-07-31T11:22:08;99550.94;;;16.36;100.00
5814;BME280;2933;52.302;8.134;2023-07-31T11:27:10;99546.50;;;16.36;100.00
5814;BME280;2933;52.302;8.134;2023-07-31T11:32:16;99542.25;;;16.43;100.00
5814;BME280;2933;52.302;8.134;2023-07-31T11:37:18;99545.28;;;16.48;100.00
5814;BME280;2933;52.302;8.134;2023-07-31T11:42:20;99550.56;;;16.57;100.00
5814;BME280;2933;52.302;8.134;2023-07-31T11:47:25;99542.03;;;16.63;100.00
5814;BME280;2933;52.302;8.134;2023-07-31T11:52:29;99540.28;;;16.72;100.00
5814;BME280;2933;52.302;8.134;2023-07-31T11:57:31;99534.53;;;16.76;100.00
5814;BME280;2933;52.302;8.134;2023-07-31T12:02:34;99530.94;;;16.77;100.00
5814;BME280;2933;52.302;8.134;2023-07-31T12:07:46;99537.63;;;16.72;100.00
5814;BME280;2933;52.302;8.134;2023-07-31T12:12:56;99526.94;;;16.73;100.00
5814;BME280;2933;52.302;8.134;2023-07-31T12:18:00;99524.63;;;16.70;100.00
5814;BME280;2933;52.302;8.134;2023-07-31T12:23:04;99521.19;;;16.78;100.00
5814;BME280;2933;52.302;8.134;2023-07-31T12:28:07;99525.03;;;16.84;100.00
5814;BME280;2933;52.302;8.134;2023-07-31T12:33:14;99508.72;;;16.88;100.00
5814;BME280;2933;52.302;8.134;2023-07-31T12:38:16;99511.25;;;16.98;100.00
5814;BME280;2933;52.302;8.134;2023-07-31T12:43:17;99526.31;;;17.06;100.00
5814;BME280;2933;52.302;8.134;2023-07-31T12:48:20;99516.56;;;17.06;100.00
5814;BME280;2933;52.302;8.134;2023-07-31T12:53:21;99511.47;;;17.13;100.00
5814;BME280;2933;52.302;8.134;2023-07-31T12:58:23;99507.97;;;17.04;100.00
5814;BME280;2933;52.302;8.134;2023-07-31T13:03:26;99512.47;;;17.12;100.00
5814;BME280;2933;52.302;8.134;2023-07-31T13:08:27;99503.75;;;17.28;100.00
5814;BME280;2933;52.302;8.134;2023-07-31T13:13:29;99508.44;;;17.51;100.00
5814;BME280;2933;52.302;8.134;2023-07-31T13:18:32;99504.16;;;17.66;100.00
5814;BME280;2933;52.302;8.134;2023-07-31T13:23:34;99495.06;;;17.69;100.00
5814;BME280;2933;52.302;8.134;2023-07-31T13:28:35;99490.47;;;17.71;100.00
5814;BME280;2933;52.302;8.134;2023-07-31T13:33:38;99481.06;;;17.52;100.00
5814;BME280;2933;52.302;8.134;2023-07-31T13:38:40;99480.03;;;17.53;100.00
5814;BME280;2933;52.302;8.134;2023-07-31T13:43:41;99475.25;;;17.56;100.00
5814;BME280;2933;52.302;8.134;2023-07-31T13:48:44;99469.47;;;17.53;100.00
5814;BME280;2933;52.302;8.134;2023-07-31T13:53:46;99454.66;;;17.68;100.00
5814;BME280;2933;52.302;8.134;2023-07-31T13:58:47;99463.91;;;17.81;100.00
5814;BME280;2933;52.302;8.134;2023-07-31T14:03:50;99459.25;;;17.66;100.00
5814;BME280;2933;52.302;8.134;2023-07-31T14:08:51;99454.81;;;17.58;100.00
5814;BME280;2933;52.302;8.134;2023-07-31T14:13:53;99464.22;;;17.61;100.00
5814;BME280;2933;52.302;8.134;2023-07-31T14:18:56;99483.84;;;17.58;100.00
5814;BME280;2933;52.302;8.134;2023-07-31T14:23:59;99492.28;;;17.79;100.00
5814;BME280;2933;52.302;8.134;2023-07-31T14:29:00;99491.97;;;17.82;100.00
5814;BME280;2933;52.302;8.134;2023-07-31T14:34:03;99493.31;;;17.94;100.00
5814;BME280;2933;52.302;8.134;2023-07-31T14:39:04;99482.91;;;18.01;100.00
5814;BME280;2933;52.302;8.134;2023-07-31T14:44:06;99478.44;;;18.18;100.00
5814;BME280;2933;52.302;8.134;2023-07-31T14:49:09;99474.94;;;18.17;100.00
5814;BME280;2933;52.302;8.134;2023-07-31T14:54:10;99476.09;;;18.23;100.00
5814;BME280;2933;52.302;8.134;2023-07-31T14:59:12;99469.03;;;18.15;100.00
5814;BME280;2933;52.302;8.134;2023-07-31T15:04:15;99435.59;;;18.31;100.00
5814;BME280;2933;52.302;8.134;2023-07-31T15:09:16;99435.72;;;18.37;100.00
5814;BME280;2933;52.302;8.134;2023-07-31T15:14:18;99434.59;;;18.40;100.00
5814;BME280;2933;52.302;8.134;2023-07-31T15:19:21;99450.91;;;18.52;100.00
5814;BME280;2933;52.302;8.134;2023-07-31T15:24:23;99440.53;;;18.42;100.00
5814;BME280;2933;52.302;8.134;2023-07-31T15:29:25;99434.09;;;18.36;100.00
5814;BME280;2933;52.302;8.134;2023-07-31T15:34:27;99437.69;;;18.44;100.00
5814;BME280;2933;52.302;8.134;2023-07-31T15:39:29;99440.06;;;18.30;100.00
5814;BME280;2933;52.302;8.134;2023-07-31T15:44:30;99429.16;;;18.33;100.00
5814;BME280;2933;52.302;8.134;2023-07-31T15:49:33;99427.84;;;18.21;100.00
5814;BME280;2933;52.302;8.134;2023-07-31T15:54:35;99426.38;;;18.18;100.00
5814;BME280;2933;52.302;8.134;2023-07-31T15:59:36;99417.59;;;18.26;100.00
5814;BME280;2933;52.302;8.134;2023-07-31T16:04:40;99417.81;;;18.00;100.00
5814;BME280;2933;52.302;8.134;2023-07-31T16:09:41;99405.94;;;17.87;100.00
5814;BME280;2933;52.302;8.134;2023-07-31T16:14:43;99414.88;;;17.70;100.00
5814;BME280;2933;52.302;8.134;2023-07-31T16:19:45;99401.66;;;17.45;100.00
5814;BME280;2933;52.302;8.134;2023-07-31T16:24:47;99395.56;;;17.36;100.00
5814;BME280;2933;52.302;8.134;2023-07-31T16:29:48;99376.75;;;17.31;100.00
5814;BME280;2933;52.302;8.134;2023-07-31T16:34:51;99373.13;;;17.32;100.00
5814;BME280;2933;52.302;8.134;2023-07-31T16:39:53;99361.59;;;17.33;100.00
5814;BME280;2933;52.302;8.134;2023-07-31T16:44:54;99355.47;;;17.33;100.00
5814;BME280;2933;52.302;8.134;2023-07-31T16:49:57;99342.44;;;17.31;100.00
5814;BME280;2933;52.302;8.134;2023-07-31T16:54:59;99331.56;;;17.26;100.00
5814;BME280;2933;52.302;8.134;2023-07-31T17:00:00;99322.00;;;17.33;100.00
5814;BME280;2933;52.302;8.134;2023-07-31T17:05:04;99326.91;;;17.28;100.00
5814;BME280;2933;52.302;8.134;2023-07-31T17:10:08;99323.78;;;17.33;100.00
5814;BME280;2933;52.302;8.134;2023-07-31T17:15:09;99307.63;;;17.27;100.00
5814;BME280;2933;52.302;8.134;2023-07-31T17:20:12;99316.22;;;17.21;100.00
5814;BME280;2933;52.302;8.134;2023-07-31T17:25:14;99303.19;;;17.20;100.00
5814;BME280;2933;52.302;8.134;2023-07-31T17:30:16;99284.06;;;17.09;100.00
5814;BME280;2933;52.302;8.134;2023-07-31T17:35:19;99283.56;;;17.06;100.00
5814;BME280;2933;52.302;8.134;2023-07-31T17:40:21;99272.66;;;17.01;100.00
5814;BME280;2933;52.302;8.134;2023-07-31T17:45:22;99267.56;;;16.99;100.00
5814;BME280;2933;52.302;8.134;2023-07-31T17:50:26;99265.41;;;17.03;100.00
5814;BME280;2933;52.302;8.134;2023-07-31T17:55:28;99258.00;;;16.98;100.00
5814;BME280;2933;52.302;8.134;2023-07-31T18:00:30;99256.03;;;17.00;100.00
5814;BME280;2933;52.302;8.134;2023-07-31T18:05:33;99251.72;;;16.91;100.00
5814;BME280;2933;52.302;8.134;2023-07-31T18:10:34;99246.09;;;16.86;100.00
5814;BME280;2933;52.302;8.134;2023-07-31T18:15:36;99247.75;;;16.87;100.00
5814;BME280;2933;52.302;8.134;2023-07-31T18:20:40;99249.91;;;16.91;100.00
5814;BME280;2933;52.302;8.134;2023-07-31T18:25:42;99241.97;;;16.83;100.00
5814;BME280;2933;52.302;8.134;2023-07-31T18:30:43;99243.63;;;16.76;100.00
5814;BME280;2933;52.302;8.134;2023-07-31T18:35:46;99237.88;;;16.72;100.00
5814;BME280;2933;52.302;8.134;2023-07-31T18:40:47;99225.16;;;16.59;100.00
5814;BME280;2933;52.302;8.134;2023-07-31T18:45:49;99223.34;;;16.52;100.00
5814;BME280;2933;52.302;8.134;2023-07-31T18:50:52;99225.00;;;16.61;100.00
5814;BME280;2933;52.302;8.134;2023-07-31T18:55:53;99212.78;;;16.52;100.00
5814;BME280;2933;52.302;8.134;2023-07-31T19:00:55;99201.59;;;16.58;100.00
5814;BME280;2933;52.302;8.134;2023-07-31T19:06:02;99196.66;;;16.55;100.00
5814;BME280;2933;52.302;8.134;2023-07-31T19:11:04;99197.97;;;16.51;100.00
5814;BME280;2933;52.302;8.134;2023-07-31T19:16:05;99182.13;;;16.51;100.00
5814;BME280;2933;52.302;8.134;2023-07-31T19:21:08;99179.34;;;16.44;100.00
5814;BME280;2933;52.302;8.134;2023-07-31T19:26:10;99175.53;;;16.38;100.00
5814;BME280;2933;52.302;8.134;2023-07-31T19:31:12;99168.13;;;16.42;100.00
5814;BME280;2933;52.302;8.134;2023-07-31T19:36:15;99153.81;;;16.44;100.00
5814;BME280;2933;52.302;8.134;2023-07-31T19:41:16;99155.94;;;16.41;100.00
5814;BME280;2933;52.302;8.134;2023-07-31T19:46:18;99146.88;;;16.35;100.00
5814;BME280;2933;52.302;8.134;2023-07-31T19:51:21;99138.81;;;16.45;100.00
5814;BME280;2933;52.302;8.134;2023-07-31T19:56:23;99144.91;;;16.37;100.00
5814;BME280;2933;52.302;8.134;2023-07-31T20:01:24;99126.78;;;16.34;100.00
5814;BME280;2933;52.302;8.134;2023-07-31T20:06:27;99121.84;;;16.23;100.00
5814;BME280;2933;52.302;8.134;2023-07-31T20:11:29;99104.03;;;16.25;100.00
5814;BME280;2933;52.302;8.134;2023-07-31T20:16:30;99115.25;;;16.27;100.00
5814;BME280;2933;52.302;8.134;2023-07-31T20:21:33;99098.13;;;16.23;100.00
5814;BME280;2933;52.302;8.134;2023-07-31T20:26:38;99096.81;;;16.27;100.00
5814;BME280;2933;52.302;8.134;2023-07-31T20:31:40;99106.22;;;16.21;100.00
5814;BME280;2933;52.302;8.134;2023-07-31T20:36:43;99088.88;;;16.19;100.00
5814;BME280;2933;52.302;8.134;2023-07-31T20:41:45;99079.69;;;16.14;100.00
5814;BME280;2933;52.302;8.134;2023-07-31T20:46:47;99074.09;;;16.09;100.00
5814;BME280;2933;52.302;8.134;2023-07-31T20:51:50;99064.53;;;16.17;100.00
5814;BME280;2933;52.302;8.134;2023-07-31T20:56:52;99056.47;;;16.10;100.00
5814;BME280;2933;52.302;8.134;2023-07-31T21:01:53;99058.59;;;16.14;100.00
5814;BME280;2933;52.302;8.134;2023-07-31T21:06:56;99033.75;;;16.09;100.00
5814;BME280;2933;52.302;8.134;2023-07-31T21:11:58;99030.59;;;16.13;100.00
5814;BME280;2933;52.302;8.134;2023-07-31T21:16:59;99029.97;;;16.11;100.00
5814;BME280;2933;52.302;8.134;2023-07-31T21:22:02;99023.22;;;16.09;100.00
5814;BME280;2933;52.302;8.134;2023-07-31T21:27:04;99021.22;;;16.11;100.00
5814;BME280;2933;52.302;8.134;2023-07-31T21:32:06;99009.88;;;16.10;100.00
5814;BME280;2933;52.302;8.134;2023-07-31T21:37:11;99007.41;;;16.09;100.00
5814;BME280;2933;52.302;8.134;2023-07-31T21:42:13;98985.84;;;16.05;100.00
5814;BME280;2933;52.302;8.134;2023-07-31T21:47:14;98982.22;;;16.06;100.00
5814;BME280;2933;52.302;8.134;2023-07-31T21:52:18;98980.25;;;16.00;100.00
5814;BME280;2933;52.302;8.134;2023-07-31T21:57:20;98976.63;;;15.93;100.00
5814;BME280;2933;52.302;8.134;2023-07-31T22:02:21;98983.19;;;15.89;100.00
5814;BME280;2933;52.302;8.134;2023-07-31T22:07:24;98967.91;;;15.92;100.00
5814;BME280;2933;52.302;8.134;2023-07-31T22:12:26;98964.78;;;15.89;100.00
5814;BME280;2933;52.302;8.134;2023-07-31T22:17:27;98963.91;;;15.80;100.00
5814;BME280;2933;52.302;8.134;2023-07-31T22:22:30;98963.78;;;15.81;100.00
5814;BME280;2933;52.302;8.134;2023-07-31T22:27:32;98956.03;;;15.80;100.00
5814;BME280;2933;52.302;8.134;2023-07-31T22:32:33;98954.41;;;15.95;100.00
5814;BME280;2933;52.302;8.134;2023-07-31T22:37:36;98942.09;;;15.88;100.00
5814;BME280;2933;52.302;8.134;2023-07-31T22:42:37;98943.88;;;15.87;100.00
5814;BME280;2933;52.302;8.134;2023-07-31T22:47:39;98934.00;;;15.89;100.00
5814;BME280;2933;52.302;8.134;2023-07-31T22:52:42;98931.34;;;15.81;100.00
5814;BME280;2933;52.302;8.134;2023-07-31T22:57:43;98928.25;;;15.86;100.00
5814;BME280;2933;52.302;8.134;2023-07-31T23:02:45;98922.63;;;15.89;100.00
5814;BME280;2933;52.302;8.134;2023-07-31T23:07:48;98897.31;;;15.88;100.00
5814;BME280;2933;52.302;8.134;2023-07-31T23:12:49;98895.84;;;15.85;100.00
5814;BME280;2933;52.302;8.134;2023-07-31T23:17:51;98884.47;;;15.85;100.00
5814;BME280;2933;52.302;8.134;2023-07-31T23:22:54;98872.59;;;15.80;100.00
5814;BME280;2933;52.302;8.134;2023-07-31T23:27:55;98865.38;;;15.74;100.00
5814;BME280;2933;52.302;8.134;2023-07-31T23:32:57;98854.97;;;15.81;100.00
5814;BME280;2933;52.302;8.134;2023-07-31T23:38:00;98843.16;;;15.77;100.00
5814;BME280;2933;52.302;8.134;2023-07-31T23:43:02;98839.88;;;15.83;100.00
5814;BME280;2933;52.302;8.134;2023-07-31T23:48:04;98838.72;;;15.86;100.00
5814;BME280;2933;52.302;8.134;2023-07-31T23:53:07;98813.06;;;15.88;100.00
5814;BME280;2933;52.302;8.134;2023-07-31T23:58:08;98821.41;;;15.91;100.00
